Time;durP1;ratioP1;P1;durP2;ratioP2;P2;SDS_P1;SDS_P2;PMS_P1;PMS_P2;Temp;Humidity;BMP_temperature;BMP_pressure;BME280_temperature;BME280_humidity;BME280_pressure;Samples;Min_cycle;Max_cycle;Signal;HPM_P1;HPM_P2
2023/07/26 00:00:09;;;;;;;;;;;;;;;28.67;63.24;98424.66;2495006;27;19929;-78
2023/07/26 00:00:20;;;;;;;;;;;;;;;28.69;63.26;98427.16;353537;28;1363;-78
2023/07/26 00:00:30;;;;;;;;;;;;;;;28.69;63.21;98425.28;352125;28;1010;-79
2023/07/26 00:00:40;;;;;;;;;;;;;;;28.68;63.25;98428.19;349416;28;1384;-79
2023/07/26 00:00:53;;;;;;;;;;;;;;;28.68;63.29;98431.72;347904;28;1191;-79
2023/07/26 00:01:03;;;;;;;;;;;;;;;28.68;63.63;98425.50;349342;28;897;-78
2023/07/26 00:01:14;;;;;;;;;;;;;;;28.69;63.51;98424.47;349171;28;1256;-78
2023/07/26 00:01:24;;;;;;;;;;;;;;;28.69;63.83;98430.66;349308;28;804;-79
2023/07/26 00:01:34;;;;;;;;;;;;;;;28.69;63.51;98425.28;349170;28;1225;-79
2023/07/26 00:01:44;;;;;;;;;;;;;;;28.65;63.24;98426.72;349438;28;1331;-79
2023/07/26 00:01:55;;;;;;;;;;;;;;;28.65;63.72;98428.59;350668;28;1357;-79
2023/07/26 00:02:05;;;;;;;;;;;;;;;28.64;63.32;98427.78;349717;28;1428;-79
2023/07/26 00:02:16;;;;;;;;;;;;;;;28.64;63.65;98429.63;348033;28;1578;-79
2023/07/26 00:02:26;;;;;;;;;;;;;;;28.65;63.13;98424.03;350166;28;1331;-79
2023/07/26 00:02:36;;;;;;;;;;;;;;;28.65;63.24;98424.03;351837;28;851;-79
2023/07/26 00:02:46;;;;;;;;;;;;;;;28.65;63.07;98424.03;349211;28;1219;-79
2023/07/26 00:02:57;;;;;;;;;;;;;;;28.66;63.55;98423.00;350579;28;2316;-79
2023/07/26 00:03:07;;;;;;;;;;;;;;;28.67;63.60;98432.75;349037;28;2843;-79
2023/07/26 00:03:17;;;;;;;;;;;;;;;28.68;63.17;98422.78;348228;28;927;-79
2023/07/26 00:03:27;;;;;;;;;;;;;;;28.67;63.46;98419.28;349239;28;1232;-79
2023/07/26 00:03:38;;;;;;;;;;;;;;;28.67;62.99;98421.97;349156;28;1193;-79
2023/07/26 00:03:48;;;;;;;;;;;;;;;28.67;63.40;98427.34;350413;28;1330;-79
2023/07/26 00:03:58;;;;;;;;;;;;;;;28.68;63.13;98418.25;350504;28;1213;-79
2023/07/26 00:04:09;;;;;;;;;;;;;;;28.69;63.49;98419.91;347857;28;808;-79
2023/07/26 00:04:19;;;;;;;;;;;;;;;28.69;63.49;98425.28;349152;28;1238;-79
2023/07/26 00:04:29;;;;;;;;;;;;;;;28.69;63.34;98419.91;346409;28;1298;-79
2023/07/26 00:04:40;;;;;;;;;;;;;;;28.70;62.94;98418.88;347991;28;831;-79
2023/07/26 00:04:50;;;;;;;;;;;;;;;28.71;62.97;98420.53;347650;28;1121;-79
2023/07/26 00:05:00;;;;;;;;;;;;;;;28.70;63.15;98421.56;350615;28;1275;-79
2023/07/26 00:05:10;;;;;;;;;;;;;;;28.73;63.08;98417.63;349189;28;1215;-79
2023/07/26 00:05:21;;;;;;;;;;;;;;;28.73;63.41;98425.69;349342;28;800;-79
2023/07/26 00:05:32;;;;;;;;;;;;;;;28.72;62.90;98419.47;350690;28;833;-78
2023/07/26 00:05:42;;;;;;;;;;;;;;;28.71;63.41;98417.81;349496;28;1317;-79
2023/07/26 00:05:52;;;;;;;;;;;;;;;28.63;63.63;98420.72;349464;28;1256;-79
2023/07/26 00:06:03;;;;;;;;;;;;;;;28.59;63.82;98419.50;347628;28;1220;-79
2023/07/26 00:06:13;;;;;;;;;;;;;;;28.55;64.02;98410.19;347710;28;1416;-79
2023/07/26 00:06:26;;;;;;;;;;;;;;;28.53;63.49;98420.34;346406;28;1203;-79
2023/07/26 00:06:36;;;;;;;;;;;;;;;28.52;63.75;98418.69;347539;28;1037;-79
2023/07/26 00:06:47;;;;;;;;;;;;;;;28.50;64.16;98412.66;342745;28;1207;-79
2023/07/26 00:06:57;;;;;;;;;;;;;;;28.48;63.60;98412.88;339756;29;1309;-79
2023/07/26 00:07:07;;;;;;;;;;;;;;;28.48;63.62;98414.75;340920;28;1350;-80
2023/07/26 00:07:17;;;;;;;;;;;;;;;28.48;63.84;98403.97;341141;28;1404;-79
2023/07/26 00:07:28;;;;;;;;;;;;;;;28.50;64.06;98415.38;342523;28;880;-78
2023/07/26 00:07:38;;;;;;;;;;;;;;;28.52;63.63;98413.28;346271;28;1214;-78
2023/07/26 00:07:48;;;;;;;;;;;;;;;28.54;63.71;98408.53;347030;28;963;-78
2023/07/26 00:07:58;;;;;;;;;;;;;;;28.56;63.79;98409.16;344887;28;1225;-78
2023/07/26 00:08:08;;;;;;;;;;;;;;;28.58;63.96;98401.69;341194;28;1451;-78
2023/07/26 00:08:19;;;;;;;;;;;;;;;28.61;63.93;98398.56;341982;28;1410;-78
2023/07/26 00:08:29;;;;;;;;;;;;;;;28.63;63.66;98392.97;339795;29;1319;-79
2023/07/26 00:08:39;;;;;;;;;;;;;;;28.65;63.68;98402.50;342456;28;1084;-79
2023/07/26 00:08:49;;;;;;;;;;;;;;;28.66;63.62;98404.16;343644;28;1669;-79
2023/07/26 00:09:00;;;;;;;;;;;;;;;28.66;63.14;98404.16;343623;28;1317;-78
2023/07/26 00:09:10;;;;;;;;;;;;;;;28.64;63.29;98400.84;341070;29;1334;-78
2023/07/26 00:09:21;;;;;;;;;;;;;;;28.62;63.29;98396.69;339431;29;1125;-78
2023/07/26 00:09:31;;;;;;;;;;;;;;;28.60;63.68;98404.97;338595;29;790;-78
2023/07/26 00:09:41;;;;;;;;;;;;;;;28.55;63.56;98406.66;339066;29;1249;-79
2023/07/26 00:09:51;;;;;;;;;;;;;;;28.47;63.38;98399.63;341923;28;911;-80
2023/07/26 00:10:02;;;;;;;;;;;;;;;28.41;63.65;98395.06;339099;29;1460;-80
2023/07/26 00:10:12;;;;;;;;;;;;;;;28.40;63.77;98396.09;338540;29;798;-80
2023/07/26 00:10:22;;;;;;;;;;;;;;;28.40;64.14;98398.78;333135;29;1795;-80
2023/07/26 00:10:32;;;;;;;;;;;;;;;28.40;64.21;98393.41;335739;29;1797;-80
2023/07/26 00:10:43;;;;;;;;;;;;;;;28.44;64.06;98397.34;337084;29;1227;-80
2023/07/26 00:10:53;;;;;;;;;;;;;;;28.45;63.68;98399.81;332448;29;1383;-80
2023/07/26 00:11:04;;;;;;;;;;;;;;;28.45;63.45;98399.81;329386;29;2247;-80
2023/07/26 00:11:14;;;;;;;;;;;;;;;28.46;63.88;98403.34;330127;29;1722;-80
2023/07/26 00:11:24;;;;;;;;;;;;;;;28.47;63.84;98395.06;334630;29;1215;-80
2023/07/26 00:11:35;;;;;;;;;;;;;;;28.47;63.60;98395.06;334857;29;1204;-80
2023/07/26 00:11:46;;;;;;;;;;;;;;;28.48;63.39;98402.09;335804;29;952;-79
2023/07/26 00:11:56;;;;;;;;;;;;;;;28.49;63.83;98400.25;335952;29;1007;-79
2023/07/26 00:12:06;;;;;;;;;;;;;;;28.50;63.33;98399.22;333697;29;1882;-79
2023/07/26 00:12:16;;;;;;;;;;;;;;;28.50;63.81;98403.75;333566;29;4269;-79
2023/07/26 00:12:27;;;;;;;;;;;;;;;28.51;63.61;98411.63;334820;29;2808;-80
2023/07/26 00:12:37;;;;;;;;;;;;;;;28.52;63.63;98402.53;335233;29;2086;-79
2023/07/26 00:12:47;;;;;;;;;;;;;;;28.51;63.31;98392.78;331545;29;2469;-79
2023/07/26 00:12:58;;;;;;;;;;;;;;;28.54;63.57;98395.06;329578;30;1313;-79
2023/07/26 00:13:08;;;;;;;;;;;;;;;28.55;63.18;98399.41;326587;30;2517;-79
2023/07/26 00:13:18;;;;;;;;;;;;;;;28.57;63.65;98397.34;325582;30;2771;-79
2023/07/26 00:13:28;;;;;;;;;;;;;;;28.59;63.24;98399.84;326170;29;1860;-79
2023/07/26 00:13:38;;;;;;;;;;;;;;;28.57;62.89;98400.03;328283;30;1306;-80
2023/07/26 00:13:49;;;;;;;;;;;;;;;28.55;63.43;98395.91;329101;30;1134;-80
2023/07/26 00:13:59;;;;;;;;;;;;;;;28.56;63.50;98400.25;326275;30;1741;-79
2023/07/26 00:14:09;;;;;;;;;;;;;;;28.57;62.99;98405.44;323378;30;1096;-79
2023/07/26 00:14:19;;;;;;;;;;;;;;;28.56;63.43;98398.38;325646;30;2126;-80
2023/07/26 00:14:30;;;;;;;;;;;;;;;28.53;62.70;98400.66;323968;30;2795;-80
2023/07/26 00:14:40;;;;;;;;;;;;;;;28.45;62.88;98401.69;322298;30;1230;-80
2023/07/26 00:14:52;;;;;;;;;;;;;;;28.42;63.56;98397.53;321536;30;2882;-81
2023/07/26 00:15:03;;;;;;;;;;;;;;;28.40;63.08;98399.63;324596;30;3023;-79
2023/07/26 00:15:13;;;;;;;;;;;;;;;28.40;63.10;98396.09;323636;30;1322;-78
2023/07/26 00:15:23;;;;;;;;;;;;;;;28.38;63.53;98401.69;318996;31;865;-79
2023/07/26 00:15:34;;;;;;;;;;;;;;;28.36;63.58;98394.84;317947;31;3242;-78
2023/07/26 00:15:44;;;;;;;;;;;;;;;28.33;63.90;98403.34;314680;31;2686;-78
2023/07/26 00:15:54;;;;;;;;;;;;;;;28.29;64.02;98397.53;316678;31;881;-78
2023/07/26 00:16:04;;;;;;;;;;;;;;;28.29;64.07;98396.69;315371;31;2355;-78
2023/07/26 00:16:15;;;;;;;;;;;;;;;28.30;64.16;98403.75;312619;31;2721;-78
2023/07/26 00:16:25;;;;;;;;;;;;;;;28.31;64.02;98395.47;312174;31;1201;-78
2023/07/26 00:16:36;;;;;;;;;;;;;;;28.34;63.81;98397.75;312782;31;2999;-78
2023/07/26 00:16:46;;;;;;;;;;;;;;;28.37;63.77;98399.19;311336;31;3888;-78
2023/07/26 00:16:56;;;;;;;;;;;;;;;28.35;63.39;98401.25;311045;31;1248;-79
2023/07/26 00:17:06;;;;;;;;;;;;;;;28.33;63.87;98404.16;309037;31;4224;-78
2023/07/26 00:17:16;;;;;;;;;;;;;;;28.32;63.99;98396.28;306249;31;4931;-78
2023/07/26 00:17:27;;;;;;;;;;;;;;;28.25;64.06;98395.47;305680;32;725;-77
2023/07/26 00:17:37;;;;;;;;;;;;;;;28.26;63.60;98400.63;306610;32;3983;-77
2023/07/26 00:17:47;;;;;;;;;;;;;;;28.23;63.74;98402.91;306384;31;4195;-78
2023/07/26 00:17:57;;;;;;;;;;;;;;;28.19;64.16;98401.63;306615;32;1268;-79
2023/07/26 00:18:08;;;;;;;;;;;;;;;28.17;63.81;98399.97;301632;32;3346;-79
2023/07/26 00:18:18;;;;;;;;;;;;;;;28.21;64.25;98402.25;301573;32;3399;-79
2023/07/26 00:18:29;;;;;;;;;;;;;;;28.23;63.95;98392.13;297634;33;3749;-78
2023/07/26 00:18:39;;;;;;;;;;;;;;;28.27;63.60;98401.47;294612;33;1253;-78
2023/07/26 00:18:50;;;;;;;;;;;;;;;28.29;64.07;98397.53;293556;33;5516;-79
2023/07/26 00:19:01;;;;;;;;;;;;;;;28.27;63.47;98396.09;291538;33;5748;-79
2023/07/26 00:19:11;;;;;;;;;;;;;;;28.22;63.95;98391.31;291419;34;897;-79
2023/07/26 00:19:23;;;;;;;;;;;;;;;28.20;63.90;98389.81;288300;33;7448;-78
2023/07/26 00:19:33;;;;;;;;;;;;;;;28.21;63.84;98396.88;289741;33;6481;-78
2023/07/26 00:19:43;;;;;;;;;;;;;;;28.21;64.22;98396.88;291197;33;6335;-78
2023/07/26 00:19:53;;;;;;;;;;;;;;;28.19;64.36;98389.00;288632;34;827;-79
2023/07/26 00:20:04;;;;;;;;;;;;;;;28.17;64.37;98399.97;284198;34;6062;-79
2023/07/26 00:20:14;;;;;;;;;;;;;;;28.17;64.00;98391.06;282924;34;5084;-79
2023/07/26 00:20:24;;;;;;;;;;;;;;;28.16;64.15;98398.31;287657;34;1248;-79
2023/07/26 00:20:35;;;;;;;;;;;;;;;28.19;64.28;98396.25;285527;34;5682;-79
2023/07/26 00:20:45;;;;;;;;;;;;;;;28.20;64.09;98389.81;282444;34;7262;-79
2023/07/26 00:20:55;;;;;;;;;;;;;;;28.22;64.23;98391.31;282921;35;1238;-79
2023/07/26 00:21:06;;;;;;;;;;;;;;;28.22;64.07;98390.47;277784;35;8821;-78
2023/07/26 00:22:43;;;;;;;;;;;;;;;28.18;63.77;98390.03;2491074;27;20255;-78
2023/07/26 00:22:53;;;;;;;;;;;;;;;28.20;64.28;98387.97;352402;28;1520;-79
2023/07/26 00:23:04;;;;;;;;;;;;;;;28.20;63.77;98387.13;352083;28;871;-79
2023/07/26 00:23:14;;;;;;;;;;;;;;;28.19;64.28;98382.78;348495;28;1347;-79
2023/07/26 00:23:25;;;;;;;;;;;;;;;28.20;63.72;98392.50;347862;28;1204;-79
2023/07/26 00:23:35;;;;;;;;;;;;;;;28.21;63.75;98389.66;347846;28;1306;-79
2023/07/26 00:23:45;;;;;;;;;;;;;;;28.23;63.89;98386.75;347906;28;875;-79
2023/07/26 00:23:55;;;;;;;;;;;;;;;28.24;63.50;98385.72;346901;28;847;-78
2023/07/26 00:24:06;;;;;;;;;;;;;;;28.23;63.50;98386.75;347731;28;1303;-78
2023/07/26 00:24:16;;;;;;;;;;;;;;;28.19;63.54;98385.47;347793;28;1267;-78
2023/07/26 00:24:26;;;;;;;;;;;;;;;28.14;63.93;98383.44;347880;28;1591;-78
2023/07/26 00:24:36;;;;;;;;;;;;;;;28.12;64.15;98383.63;346058;28;1257;-79
2023/07/26 00:24:47;;;;;;;;;;;;;;;28.13;64.15;98382.59;343895;28;1249;-79
2023/07/26 00:24:59;;;;;;;;;;;;;;;28.14;63.82;98384.25;346378;28;1567;-78
2023/07/26 00:25:09;;;;;;;;;;;;;;;28.18;63.73;98384.66;349183;28;853;-78
2023/07/26 00:25:21;;;;;;;;;;;;;;;28.20;63.85;98387.13;347921;28;1349;-78
2023/07/26 00:25:31;;;;;;;;;;;;;;;28.23;63.50;98386.75;347906;28;1238;-78
2023/07/26 00:25:41;;;;;;;;;;;;;;;28.23;64.11;98386.75;347916;28;883;-78
2023/07/26 00:25:52;;;;;;;;;;;;;;;28.21;63.83;98388.78;347853;28;1212;-78
2023/07/26 00:26:02;;;;;;;;;;;;;;;28.17;64.19;98389.19;347863;28;1257;-78
2023/07/26 00:26:12;;;;;;;;;;;;;;;28.10;64.04;98388.38;349152;28;1201;-78
2023/07/26 00:26:23;;;;;;;;;;;;;;;28.07;64.49;98391.50;348436;28;1365;-78
2023/07/26 00:26:34;;;;;;;;;;;;;;;28.02;64.86;98385.88;349512;28;1070;-78
2023/07/26 00:26:44;;;;;;;;;;;;;;;27.99;64.40;98383.59;345157;28;919;-78
2023/07/26 00:26:55;;;;;;;;;;;;;;;27.98;64.75;98384.63;347628;28;1215;-79
2023/07/26 00:27:05;;;;;;;;;;;;;;;27.99;64.57;98386.28;347789;28;1228;-78
2023/07/26 00:27:17;;;;;;;;;;;;;;;28.01;65.02;98384.22;346491;28;832;-78
2023/07/26 00:27:27;;;;;;;;;;;;;;;28.01;64.88;98386.91;346414;28;1216;-79
2023/07/26 00:27:37;;;;;;;;;;;;;;;27.99;64.78;98380.91;342184;28;1204;-79
2023/07/26 00:27:47;;;;;;;;;;;;;;;28.01;65.04;98381.53;343552;28;1283;-79
2023/07/26 00:27:58;;;;;;;;;;;;;;;28.04;64.44;98386.50;345731;28;1483;-78
2023/07/26 00:28:08;;;;;;;;;;;;;;;28.05;64.88;98388.16;347499;28;1358;-77
2023/07/26 00:28:18;;;;;;;;;;;;;;;28.04;64.94;98386.50;345093;28;1322;-77
2023/07/26 00:28:28;;;;;;;;;;;;;;;28.04;64.68;98389.19;347846;28;1220;-79
2023/07/26 00:28:39;;;;;;;;;;;;;;;28.05;65.02;98387.34;346270;28;1281;-79
2023/07/26 00:28:49;;;;;;;;;;;;;;;28.06;64.97;98386.31;346408;28;1326;-79
2023/07/26 00:28:59;;;;;;;;;;;;;;;28.04;64.86;98389.19;345269;28;792;-79
2023/07/26 00:29:09;;;;;;;;;;;;;;;28.05;64.68;98390.88;345379;28;1416;-79
2023/07/26 00:29:20;;;;;;;;;;;;;;;28.06;64.48;98386.31;346823;28;1179;-79
2023/07/26 00:29:30;;;;;;;;;;;;;;;28.08;64.38;98385.06;345218;28;1236;-78
2023/07/26 00:29:40;;;;;;;;;;;;;;;28.12;64.71;98386.31;345530;28;1328;-78
2023/07/26 00:29:50;;;;;;;;;;;;;;;28.11;64.60;98381.97;345117;28;1609;-78
2023/07/26 00:30:01;;;;;;;;;;;;;;;28.07;64.77;98383.41;346480;28;1122;-78
2023/07/26 00:30:11;;;;;;;;;;;;;;;28.04;64.97;98383.81;343472;28;1209;-78
2023/07/26 00:30:21;;;;;;;;;;;;;;;28.04;64.75;98389.19;344963;28;1188;-78
2023/07/26 00:30:32;;;;;;;;;;;;;;;28.01;64.59;98389.59;343829;28;1229;-78
2023/07/26 00:30:42;;;;;;;;;;;;;;;28.02;65.20;98383.19;340437;28;2606;-78
2023/07/26 00:30:52;;;;;;;;;;;;;;;28.02;64.74;98380.50;338592;29;4319;-79
2023/07/26 00:31:02;;;;;;;;;;;;;;;28.04;65.03;98391.91;340977;28;1897;-79
2023/07/26 00:31:13;;;;;;;;;;;;;;;28.07;64.88;98386.09;341038;29;801;-79
2023/07/26 00:31:23;;;;;;;;;;;;;;;28.08;64.91;98386.94;342604;28;3306;-79
2023/07/26 00:31:33;;;;;;;;;;;;;;;28.07;64.66;98382.59;342317;28;1303;-79
2023/07/26 00:31:43;;;;;;;;;;;;;;;28.07;64.84;98390.66;338585;29;1375;-78
2023/07/26 00:31:53;;;;;;;;;;;;;;;28.05;64.68;98385.47;335928;29;1287;-78
2023/07/26 00:32:04;;;;;;;;;;;;;;;28.08;65.07;98389.63;337126;29;1271;-78
2023/07/26 00:32:14;;;;;;;;;;;;;;;28.08;64.75;98382.38;337255;29;1334;-79
2023/07/26 00:32:24;;;;;;;;;;;;;;;28.11;64.62;98390.06;337507;29;937;-79
2023/07/26 00:32:35;;;;;;;;;;;;;;;28.11;64.53;98383.84;338161;28;1471;-78
2023/07/26 00:32:45;;;;;;;;;;;;;;;28.10;64.58;98392.94;339854;29;1296;-78
2023/07/26 00:32:55;;;;;;;;;;;;;;;28.08;64.58;98390.47;339297;29;2036;-78
2023/07/26 00:33:05;;;;;;;;;;;;;;;28.06;65.01;98387.13;335945;29;2239;-78
2023/07/26 00:33:15;;;;;;;;;;;;;;;28.06;65.07;98381.75;333275;29;1209;-78
2023/07/26 00:33:26;;;;;;;;;;;;;;;28.08;65.04;98386.94;338958;29;2426;-78
2023/07/26 00:33:36;;;;;;;;;;;;;;;28.09;65.13;98391.28;336423;29;2213;-78
2023/07/26 00:33:46;;;;;;;;;;;;;;;28.07;64.89;98388.78;333152;29;1536;-79
2023/07/26 00:33:56;;;;;;;;;;;;;;;28.04;65.06;98383.81;334324;29;1623;-79
2023/07/26 00:34:07;;;;;;;;;;;;;;;28.02;65.58;98391.28;335249;29;1012;-78
2023/07/26 00:34:17;;;;;;;;;;;;;;;28.01;65.72;98383.41;335577;29;1227;-78
2023/07/26 00:34:27;;;;;;;;;;;;;;;28.00;65.21;98393.34;334563;29;1315;-78
2023/07/26 00:34:37;;;;;;;;;;;;;;;27.97;65.50;98390.22;333593;29;1812;-78
2023/07/26 00:34:48;;;;;;;;;;;;;;;27.97;65.75;98393.75;331491;29;2187;-78
2023/07/26 00:34:58;;;;;;;;;;;;;;;27.96;65.35;98389.38;334780;29;1132;-79
2023/07/26 00:35:08;;;;;;;;;;;;;;;27.99;65.60;98388.97;332206;29;2553;-79
2023/07/26 00:35:19;;;;;;;;;;;;;;;28.00;65.19;98393.34;331661;29;2682;-78
2023/07/26 00:35:32;;;;;;;;;;;;;;;27.99;65.49;98398.91;327992;30;1569;-78
2023/07/26 00:35:42;;;;;;;;;;;;;;;27.99;65.46;98397.06;325281;30;2824;-78
2023/07/26 00:35:52;;;;;;;;;;;;;;;28.01;65.63;98395.00;324531;30;2947;-78
2023/07/26 00:36:03;;;;;;;;;;;;;;;28.03;65.42;98387.53;323802;30;1807;-79
2023/07/26 00:36:13;;;;;;;;;;;;;;;28.06;65.45;98386.31;327380;30;1188;-78
2023/07/26 00:36:23;;;;;;;;;;;;;;;28.06;65.32;98389.84;323104;30;1399;-78
2023/07/26 00:36:33;;;;;;;;;;;;;;;28.06;65.62;98383.63;319975;30;1788;-78
2023/07/26 00:36:44;;;;;;;;;;;;;;;28.07;65.27;98388.78;317670;31;1314;-78
2023/07/26 00:36:54;;;;;;;;;;;;;;;28.07;65.19;98396.03;316364;30;2311;-78
2023/07/26 00:37:05;;;;;;;;;;;;;;;28.07;65.57;98388.78;315479;30;2733;-78
2023/07/26 00:37:15;;;;;;;;;;;;;;;28.08;65.16;98387.75;316441;31;1377;-79
2023/07/26 00:37:25;;;;;;;;;;;;;;;28.08;65.22;98390.47;320477;30;2985;-78
2023/07/26 00:37:36;;;;;;;;;;;;;;;28.06;65.52;98384.44;317945;31;3609;-78
2023/07/26 00:37:46;;;;;;;;;;;;;;;28.06;65.54;98391.69;317631;31;1095;-78
2023/07/26 00:37:56;;;;;;;;;;;;;;;28.05;65.18;98390.88;322772;30;3838;-78
2023/07/26 00:38:06;;;;;;;;;;;;;;;28.03;65.52;98382.16;320339;30;3389;-78
2023/07/26 00:38:17;;;;;;;;;;;;;;;28.01;65.79;98389.59;316488;31;1552;-78
2023/07/26 00:38:27;;;;;;;;;;;;;;;27.99;65.59;98383.59;316056;31;2356;-78
2023/07/26 00:38:37;;;;;;;;;;;;;;;27.95;65.94;98382.34;318641;30;1807;-78
2023/07/26 00:38:48;;;;;;;;;;;;;;;27.93;65.81;98379.03;319272;30;2453;-78
2023/07/26 00:38:58;;;;;;;;;;;;;;;27.91;66.38;98382.97;320172;30;833;-80
2023/07/26 00:39:08;;;;;;;;;;;;;;;27.87;65.99;98385.22;313833;31;3067;-78
2023/07/26 00:39:18;;;;;;;;;;;;;;;27.87;66.38;98387.09;312512;31;3906;-77
2023/07/26 00:39:28;;;;;;;;;;;;;;;27.85;66.22;98379.22;315485;31;1266;-77
2023/07/26 00:39:39;;;;;;;;;;;;;;;27.81;66.26;98377.97;314505;31;3887;-77
2023/07/26 00:39:49;;;;;;;;;;;;;;;27.80;66.62;98381.69;311280;31;4549;-79
2023/07/26 00:39:59;;;;;;;;;;;;;;;27.82;66.81;98379.63;309835;31;1413;-79
2023/07/26 00:40:10;;;;;;;;;;;;;;;27.84;66.25;98377.56;310395;31;5023;-79
2023/07/26 00:40:20;;;;;;;;;;;;;;;27.85;66.49;98381.91;306438;31;4725;-79
2023/07/26 00:40:30;;;;;;;;;;;;;;;27.87;66.26;98374.47;304274;32;4312;-79
2023/07/26 00:40:40;;;;;;;;;;;;;;;27.91;66.32;98375.72;304649;32;3279;-79
2023/07/26 00:40:51;;;;;;;;;;;;;;;27.93;66.00;98376.34;304730;32;2789;-79
2023/07/26 00:41:01;;;;;;;;;;;;;;;27.97;66.02;98374.06;306756;32;803;-79
2023/07/26 00:41:11;;;;;;;;;;;;;;;27.95;66.31;98385.03;301682;32;3930;-78
2023/07/26 00:41:21;;;;;;;;;;;;;;;27.93;66.41;98376.34;300736;32;4480;-77
2023/07/26 00:41:32;;;;;;;;;;;;;;;27.91;66.26;98378.41;302314;32;1922;-77
2023/07/26 00:41:42;;;;;;;;;;;;;;;27.86;66.44;98380.88;301306;32;5217;-77
2023/07/26 00:41:52;;;;;;;;;;;;;;;27.81;66.75;98381.47;301432;32;5330;-79
2023/07/26 00:42:03;;;;;;;;;;;;;;;27.76;66.80;98375.88;302776;32;5775;-78
2023/07/26 00:42:17;;;;;;;;;;;;;;;27.75;66.64;98368.84;302413;32;1186;-78
2023/07/26 00:42:27;;;;;;;;;;;;;;;27.74;66.91;98374.44;299564;32;7113;-79
2023/07/26 00:42:37;;;;;;;;;;;;;;;27.74;67.16;98374.44;298807;32;6971;-78
2023/07/26 00:42:48;;;;;;;;;;;;;;;27.76;67.22;98372.38;295924;33;4814;-78
2023/07/26 00:42:58;;;;;;;;;;;;;;;27.77;66.94;98379.41;294039;33;1439;-78
2023/07/26 00:43:08;;;;;;;;;;;;;;;27.76;67.38;98370.50;291816;33;4390;-78
2023/07/26 00:43:19;;;;;;;;;;;;;;;27.72;66.93;98363.91;290827;33;5930;-78
2023/07/26 00:43:29;;;;;;;;;;;;;;;27.73;67.23;98372.78;293361;33;1187;-78
2023/07/26 00:43:39;;;;;;;;;;;;;;;27.76;67.25;98375.06;289632;33;5992;-78
2023/07/26 00:43:49;;;;;;;;;;;;;;;27.77;66.94;98365.97;287387;33;7575;-78
2023/07/26 00:44:00;;;;;;;;;;;;;;;27.77;67.35;98372.16;290066;34;1248;-78
2023/07/26 00:44:10;;;;;;;;;;;;;;;27.78;67.41;98378.38;287877;33;7300;-78
2023/07/26 00:44:21;;;;;;;;;;;;;;;27.78;66.98;98373.00;287133;33;7634;-77
2023/07/26 00:44:32;;;;;;;;;;;;;;;27.78;66.88;98371.13;288579;34;911;-77
2023/07/26 00:46:26;;;;;;;;;;;;;;;27.75;67.57;98373.41;2497891;27;19929;-79
2023/07/26 00:46:36;;;;;;;;;;;;;;;27.76;67.53;98375.88;353429;28;1513;-78
2023/07/26 00:46:46;;;;;;;;;;;;;;;27.77;67.32;98369.47;352045;28;815;-78
2023/07/26 00:46:56;;;;;;;;;;;;;;;27.79;66.92;98375.47;350732;28;939;-78
2023/07/26 00:47:07;;;;;;;;;;;;;;;27.79;67.07;98369.28;350393;28;1409;-78
2023/07/26 00:47:17;;;;;;;;;;;;;;;27.81;67.16;98377.97;350487;28;1236;-78
2023/07/26 00:47:27;;;;;;;;;;;;;;;27.84;66.86;98372.19;350343;28;1133;-78
2023/07/26 00:47:37;;;;;;;;;;;;;;;27.84;66.97;98372.19;350452;28;1203;-79
2023/07/26 00:47:48;;;;;;;;;;;;;;;27.88;67.30;98372.59;350638;28;849;-79
2023/07/26 00:47:58;;;;;;;;;;;;;;;27.90;66.93;98374.06;350643;28;1362;-78
2023/07/26 00:48:08;;;;;;;;;;;;;;;27.93;67.11;98375.53;349185;28;864;-78
2023/07/26 00:48:18;;;;;;;;;;;;;;;27.93;66.50;98373.66;349004;28;1330;-78
2023/07/26 00:48:28;;;;;;;;;;;;;;;27.96;66.86;98373.25;350549;28;1229;-79
2023/07/26 00:48:39;;;;;;;;;;;;;;;27.95;66.74;98368.06;348365;28;1233;-79
2023/07/26 00:48:49;;;;;;;;;;;;;;;27.94;67.17;98367.25;347833;28;1214;-79
2023/07/26 00:48:59;;;;;;;;;;;;;;;27.95;66.70;98379.66;350542;28;1487;-78
2023/07/26 00:49:09;;;;;;;;;;;;;;;27.95;67.12;98376.97;348027;28;1326;-78
2023/07/26 00:49:20;;;;;;;;;;;;;;;27.94;66.84;98369.94;346645;28;1312;-78
2023/07/26 00:49:30;;;;;;;;;;;;;;;27.94;66.64;98374.50;345109;28;2573;-78
2023/07/26 00:49:40;;;;;;;;;;;;;;;27.93;66.69;98368.28;346451;28;3172;-78
2023/07/26 00:49:50;;;;;;;;;;;;;;;27.95;66.60;98371.59;347407;28;4739;-78
2023/07/26 00:50:01;;;;;;;;;;;;;;;27.95;66.91;98374.28;346665;28;789;-78
2023/07/26 00:50:11;;;;;;;;;;;;;;;27.95;67.10;98374.28;346495;28;996;-78
2023/07/26 00:50:21;;;;;;;;;;;;;;;27.96;66.74;98370.56;347769;28;1252;-78
2023/07/26 00:50:32;;;;;;;;;;;;;;;27.96;66.75;98375.94;346878;28;1077;-78
2023/07/26 00:50:42;;;;;;;;;;;;;;;27.96;67.15;98359.81;349512;28;796;-78
2023/07/26 00:50:52;;;;;;;;;;;;;;;27.98;67.14;98371.19;350550;28;1248;-78
2023/07/26 00:51:02;;;;;;;;;;;;;;;27.99;66.89;98378.22;351334;28;750;-80
2023/07/26 00:51:13;;;;;;;;;;;;;;;28.00;66.56;98371.81;350518;28;1326;-80
2023/07/26 00:51:23;;;;;;;;;;;;;;;28.02;66.67;98369.75;351695;28;1375;-79
2023/07/26 00:51:35;;;;;;;;;;;;;;;28.04;66.44;98378.44;349134;28;1110;-78
2023/07/26 00:51:46;;;;;;;;;;;;;;;28.05;66.87;98372.03;347888;28;866;-79
2023/07/26 00:51:56;;;;;;;;;;;;;;;28.06;66.35;98371.00;348028;28;1285;-79
2023/07/26 00:52:07;;;;;;;;;;;;;;;28.07;66.74;98369.97;347925;28;749;-79
2023/07/26 00:52:17;;;;;;;;;;;;;;;28.08;66.34;98376.16;348336;28;1458;-79
2023/07/26 00:52:27;;;;;;;;;;;;;;;28.04;66.28;98372.22;347864;28;1220;-79
2023/07/26 00:52:39;;;;;;;;;;;;;;;28.00;66.95;98377.19;349243;28;1297;-79
2023/07/26 00:52:49;;;;;;;;;;;;;;;28.01;66.83;98373.47;345539;28;1280;-79
2023/07/26 00:53:00;;;;;;;;;;;;;;;27.99;67.21;98364.78;342508;28;1374;-79
2023/07/26 00:53:10;;;;;;;;;;;;;;;27.99;66.78;98375.53;344925;28;1214;-79
2023/07/26 00:53:21;;;;;;;;;;;;;;;28.01;67.11;98375.31;345473;28;1169;-79
2023/07/26 00:53:31;;;;;;;;;;;;;;;27.99;66.74;98369.31;344374;28;1155;-79
2023/07/26 00:53:41;;;;;;;;;;;;;;;27.97;66.89;98368.69;346509;28;931;-79
2023/07/26 00:53:52;;;;;;;;;;;;;;;27.95;66.82;98368.91;348569;28;915;-79
2023/07/26 00:54:03;;;;;;;;;;;;;;;27.96;66.86;98364.34;349180;28;1196;-79
2023/07/26 00:54:14;;;;;;;;;;;;;;;27.98;66.73;98364.97;350298;28;1148;-79
2023/07/26 00:54:24;;;;;;;;;;;;;;;28.01;66.98;98367.25;347944;28;642;-79
2023/07/26 00:54:34;;;;;;;;;;;;;;;28.03;66.75;98370.56;349320;28;1187;-79
2023/07/26 00:54:44;;;;;;;;;;;;;;;28.03;67.06;98360.63;346246;28;1606;-79
2023/07/26 00:55:00;;;;;;;;;;;;;;;28.04;67.11;98365.00;346456;28;1131;-79
2023/07/26 00:55:10;;;;;;;;;;;;;;;28.03;67.04;98366.03;340965;29;1390;-79
2023/07/26 00:55:20;;;;;;;;;;;;;;;28.02;66.89;98364.38;342009;28;1246;-79
2023/07/26 00:55:30;;;;;;;;;;;;;;;28.04;66.86;98361.47;342050;28;1618;-79
2023/07/26 00:55:42;;;;;;;;;;;;;;;28.05;66.67;98361.25;338469;29;1213;-79
2023/07/26 00:55:53;;;;;;;;;;;;;;;28.08;66.54;98368.09;343364;28;1349;-79
2023/07/26 00:56:03;;;;;;;;;;;;;;;28.09;66.73;98373.28;342904;28;1221;-79
2023/07/26 00:56:14;;;;;;;;;;;;;;;28.11;67.01;98373.91;342218;28;951;-79
2023/07/26 00:56:25;;;;;;;;;;;;;;;28.12;66.59;98374.72;342404;28;1299;-78
2023/07/26 00:56:35;;;;;;;;;;;;;;;28.13;66.95;98371.00;344535;28;1469;-78
2023/07/26 00:56:45;;;;;;;;;;;;;;;28.15;66.60;98366.25;346686;28;1512;-78
2023/07/26 00:56:55;;;;;;;;;;;;;;;28.15;66.48;98372.47;349251;28;910;-78
2023/07/26 00:57:06;;;;;;;;;;;;;;;28.16;66.69;98368.72;345304;28;1955;-78
2023/07/26 00:57:16;;;;;;;;;;;;;;;28.17;66.90;98367.66;341010;29;1326;-78
2023/07/26 00:57:26;;;;;;;;;;;;;;;28.15;66.71;98368.94;339858;29;1219;-78
2023/07/26 00:57:36;;;;;;;;;;;;;;;28.07;66.80;98372.66;340492;28;1449;-79
2023/07/26 00:57:47;;;;;;;;;;;;;;;27.99;67.51;98372.84;339280;29;2081;-79
2023/07/26 00:57:57;;;;;;;;;;;;;;;27.92;67.29;98369.31;335580;29;1334;-79
2023/07/26 00:58:07;;;;;;;;;;;;;;;27.85;67.60;98368.47;336773;29;1596;-79
2023/07/26 00:58:17;;;;;;;;;;;;;;;27.81;67.75;98367.22;334884;29;1233;-79
2023/07/26 00:58:28;;;;;;;;;;;;;;;27.79;68.27;98370.09;338456;29;1282;-79
2023/07/26 00:58:39;;;;;;;;;;;;;;;27.80;68.42;98373.63;337094;29;1509;-79
2023/07/26 00:58:50;;;;;;;;;;;;;;;27.80;67.81;98371.75;332443;29;2917;-79
2023/07/26 00:59:00;;;;;;;;;;;;;;;27.79;68.13;98371.97;330147;29;4703;-79